Time;durP1;ratioP1;P1;durP2;ratioP2;P2;SDS_P1;SDS_P2;PMS_P1;PMS_P2;Temp;Humidity;BMP_temperature;BMP_pressure;BME280_temperature;BME280_humidity;BME280_pressure;Samples;Min_cycle;Max_cycle;Signal;HPM_P1;HPM_P2
2022/09/15 00:01:25;;;;;;;4.28;2.83;;;;;;;14.72;73.80;99666.03;5026767;28;20091;-25
2022/09/15 00:03:50;;;;;;;3.22;2.90;;;;;;;14.69;73.69;99675.88;5032956;28;20029;-25
2022/09/15 00:06:16;;;;;;;3.88;3.30;;;;;;;14.68;73.42;99671.50;5029801;28;20034;-25
2022/09/15 00:08:43;;;;;;;3.28;2.50;;;;;;;14.64;73.76;99660.16;5009735;28;20109;-25
2022/09/15 00:11:19;;;;;;;3.63;2.45;;;;;;;14.66;73.31;99670.69;4990145;28;20025;-25
2022/09/15 00:13:44;;;;;;;3.20;2.80;;;;;;;14.63;73.62;99669.91;5026400;28;20037;-25
2022/09/15 00:16:11;;;;;;;2.97;2.67;;;;;;;14.63;73.78;99669.06;5029912;28;20029;-25
2022/09/15 00:18:38;;;;;;;4.00;2.15;;;;;;;14.61;73.73;99665.63;5017258;28;20039;-25
2022/09/15 00:21:11;;;;;;;3.40;2.53;;;;;;;14.59;73.78;99667.47;5001938;28;20076;-25
2022/09/15 00:23:38;;;;;;;3.65;2.35;;;;;;;14.57;73.81;99667.50;5025507;28;20053;-25
2022/09/15 00:26:07;;;;;;;3.88;2.95;;;;;;;14.53;73.65;99673.00;5019589;28;20116;-24
2022/09/15 00:28:32;;;;;;;3.40;2.17;;;;;;;14.52;73.70;99669.50;5010816;28;20029;-24
2022/09/15 00:30:59;;;;;;;2.90;2.63;;;;;;;14.49;73.79;99659.91;5023222;28;20100;-24
2022/09/15 00:33:24;;;;;;;2.65;2.45;;;;;;;14.51;73.49;99670.44;4995938;28;20025;-24
2022/09/15 00:35:55;;;;;;;4.85;3.17;;;;;;;14.47;73.72;99659.09;5022226;28;20029;-24
2022/09/15 00:38:23;;;;;;;3.42;3.13;;;;;;;14.46;73.76;99667.97;5021209;28;20163;-26
2022/09/15 00:40:54;;;;;;;3.17;2.72;;;;;;;14.44;73.34;99658.34;5008558;28;20029;-25
2022/09/15 00:43:48;;;;;;;4.28;3.30;;;;;;;14.43;73.87;99670.75;5029189;28;20037;-25
2022/09/15 00:46:39;;;;;;;2.92;2.65;;;;;;;14.39;73.88;99661.19;5020674;28;20029;-24
2022/09/15 00:49:08;;;;;;;3.15;2.65;;;;;;;14.40;73.84;99670.88;5014177;28;20080;-25
2022/09/15 00:51:50;;;;;;;2.80;2.60;;;;;;;14.39;73.48;99681.53;5010874;28;20463;-25
2022/09/15 00:54:20;;;;;;;3.10;2.50;;;;;;;14.34;73.72;99673.78;5016678;28;20030;-25
2022/09/15 00:56:47;;;;;;;4.60;2.40;;;;;;;14.34;73.89;99679.09;5011210;28;20036;-25
2022/09/15 00:59:16;;;;;;;3.40;2.72;;;;;;;14.32;73.81;99684.47;5005958;28;20025;-25
2022/09/15 01:01:42;;;;;;;2.78;2.45;;;;;;;14.32;73.56;99672.97;4993656;28;20406;-25
2022/09/15 01:04:08;;;;;;;3.35;2.58;;;;;;;14.29;73.55;99675.75;5013569;28;20029;-25
2022/09/15 01:06:41;;;;;;;4.75;2.67;;;;;;;14.28;73.47;99664.31;5007063;28;20112;-25
2022/09/15 01:09:24;;;;;;;3.95;2.83;;;;;;;14.26;73.44;99667.91;5008948;28;20033;-26
2022/09/15 01:11:50;;;;;;;4.93;2.80;;;;;;;14.24;73.58;99662.69;5009919;28;20022;-25
2022/09/15 01:14:15;;;;;;;3.22;2.92;;;;;;;14.23;73.60;99664.47;5004818;28;20036;-25
2022/09/15 01:17:06;;;;;;;6.03;3.28;;;;;;;14.20;73.92;99661.94;5025464;28;20191;-24
2022/09/15 01:20:13;;;;;;;3.85;2.67;;;;;;;14.18;73.53;99669.13;5006046;28;20038;-25
2022/09/15 01:23:12;;;;;;;3.55;2.60;;;;;;;14.16;73.62;99662.13;4966816;28;20624;-25
2022/09/15 01:25:56;;;;;;;3.72;2.53;;;;;;;14.12;73.72;99664.03;5019803;28;20025;-25
2022/09/15 01:28:58;;;;;;;3.85;2.42;;;;;;;14.13;73.33;99671.06;5013387;28;20037;-25
2022/09/15 01:34:41;;;;;;;3.40;2.93;;;;;;;14.05;73.41;99659.91;5028491;28;20666;-25
2022/09/15 01:37:12;;;;;;;2.63;2.38;;;;;;;14.04;73.47;99668.78;5025610;28;20053;-25
2022/09/15 01:39:41;;;;;;;3.35;2.38;;;;;;;14.02;73.58;99674.16;5007304;28;20041;-25
2022/09/15 01:42:12;;;;;;;2.70;2.38;;;;;;;14.03;73.39;99675.00;5025430;28;20458;-25
2022/09/15 01:44:43;;;;;;;3.20;2.70;;;;;;;14.00;73.66;99673.34;4996079;28;20033;-25
2022/09/15 01:47:12;;;;;;;5.78;2.65;;;;;;;14.01;73.46;99666.25;5004885;28;20084;-25
2022/09/15 01:49:47;;;;;;;2.97;2.67;;;;;;;14.00;73.48;99667.19;5009606;28;20512;-25
2022/09/15 01:52:19;;;;;;;3.72;2.92;;;;;;;13.96;73.30;99659.34;5023037;28;20127;-24
2022/09/15 01:54:48;;;;;;;3.13;2.50;;;;;;;13.93;73.38;99667.44;5016652;28;20037;-24
2022/09/15 01:57:32;;;;;;;3.20;2.38;;;;;;;13.92;73.59;99673.66;5031640;28;20029;-25
2022/09/15 01:59:58;;;;;;;4.63;2.83;;;;;;;13.90;73.64;99680.78;5025895;28;20467;-24
2022/09/15 02:02:29;;;;;;;3.28;2.78;;;;;;;13.89;73.67;99672.91;5011888;28;20044;-24
2022/09/15 02:04:58;;;;;;;3.10;2.70;;;;;;;13.86;73.88;99668.59;5012038;28;20434;-24
2022/09/15 02:07:49;;;;;;;2.83;2.53;;;;;;;13.85;73.75;99674.81;5010491;28;20032;-24
2022/09/15 02:10:31;;;;;;;4.47;2.70;;;;;;;13.84;73.35;99673.09;5011507;28;20032;-24
2022/09/15 02:13:16;;;;;;;3.80;2.70;;;;;;;13.81;73.86;99671.41;5033322;28;20033;-24
2022/09/15 02:15:47;;;;;;;3.15;2.83;;;;;;;13.82;73.79;99674.94;5023323;28;20083;-24
2022/09/15 02:18:19;;;;;;;3.03;2.47;;;;;;;13.82;73.89;99672.28;5007944;28;20112;-25
2022/09/15 02:20:52;;;;;;;3.78;2.75;;;;;;;13.80;73.68;99674.09;5028717;28;20025;-25
2022/09/15 02:23:27;;;;;;;3.70;2.92;;;;;;;13.79;73.71;99677.69;5030804;28;20505;-24
2022/09/15 02:25:58;;;;;;;3.40;2.78;;;;;;;13.77;73.86;99674.25;5009547;28;20033;-25
2022/09/15 02:28:27;;;;;;;2.60;2.28;;;;;;;13.77;73.97;99668.97;4998145;28;20026;-25
2022/09/15 02:30:54;;;;;;;4.78;3.00;;;;;;;13.76;73.77;99668.09;5025083;28;20397;-25
2022/09/15 02:33:23;;;;;;;3.22;2.67;;;;;;;13.76;74.04;99664.56;5028622;28;20025;-24
2022/09/15 02:35:50;;;;;;;3.85;2.75;;;;;;;13.76;74.07;99664.56;5005926;28;20391;-24
2022/09/15 02:38:15;;;;;;;3.40;3.00;;;;;;;13.73;73.83;99660.25;4996576;28;20017;-25
2022/09/15 02:40:43;;;;;;;3.00;2.72;;;;;;;13.71;74.40;99665.59;5033392;28;20025;-25
2022/09/15 02:43:13;;;;;;;2.90;2.70;;;;;;;13.70;74.34;99658.56;5032404;28;20025;-25
2022/09/15 02:45:38;;;;;;;4.57;3.35;;;;;;;13.69;74.13;99664.81;5023078;28;20079;-25
2022/09/15 02:48:04;;;;;;;5.00;3.30;;;;;;;13.65;74.29;99663.19;5028098;28;20100;-24
2022/09/15 02:50:29;;;;;;;4.78;3.50;;;;;;;13.65;74.20;99665.84;5030179;28;20021;-25
2022/09/15 02:52:55;;;;;;;3.55;3.10;;;;;;;13.63;74.39;99667.69;5027346;28;20148;-23
2022/09/15 02:55:22;;;;;;;3.42;2.97;;;;;;;13.60;74.33;99670.44;5012879;28;20143;-25
2022/09/15 02:57:48;;;;;;;3.58;3.28;;;;;;;13.58;74.06;99664.34;5024715;28;20029;-24
2022/09/15 03:00:15;;;;;;;5.60;3.50;;;;;;;13.56;74.26;99666.19;5025868;28;20465;-24
2022/09/15 03:02:44;;;;;;;3.95;3.20;;;;;;;13.54;74.49;99662.75;5027037;28;20104;-24
2022/09/15 03:05:13;;;;;;;4.13;3.30;;;;;;;13.54;73.82;99663.59;5024659;28;20108;-24
2022/09/15 03:07:39;;;;;;;3.67;3.38;;;;;;;13.51;74.07;99665.50;5026084;28;20063;-24
2022/09/15 03:10:06;;;;;;;4.95;3.05;;;;;;;13.50;73.93;99661.13;5022500;28;20022;-24
2022/09/15 03:12:46;;;;;;;5.75;3.40;;;;;;;13.50;73.79;99658.50;5033503;28;20087;-24
2022/09/15 03:15:32;;;;;;;3.88;3.50;;;;;;;13.45;73.66;99655.97;5018198;28;20465;-25
2022/09/15 03:17:57;;;;;;;3.63;3.33;;;;;;;13.41;73.95;99652.56;5014331;28;20499;-25
2022/09/15 03:20:27;;;;;;;4.93;4.28;;;;;;;13.41;73.56;99649.06;5019506;28;20043;-25
2022/09/15 03:22:52;;;;;;;4.75;3.53;;;;;;;13.36;73.61;99646.56;5021879;28;20022;-25
2022/09/15 03:25:20;;;;;;;3.80;3.25;;;;;;;13.32;73.95;99647.63;5006904;28;20040;-25
2022/09/15 03:27:46;;;;;;;3.65;3.35;;;;;;;13.32;73.63;99642.31;5020859;28;20025;-24
2022/09/15 03:30:11;;;;;;;3.47;3.03;;;;;;;13.30;73.39;99644.16;5013323;28;20041;-25
2022/09/15 03:32:37;;;;;;;3.35;3.03;;;;;;;13.28;73.44;99646.88;5031949;28;20033;-25
2022/09/15 03:35:07;;;;;;;3.88;3.38;;;;;;;13.26;73.47;99647.84;5031191;28;20108;-24
2022/09/15 03:37:32;;;;;;;3.88;3.50;;;;;;;13.23;73.30;99654.09;5012707;28;20035;-24
2022/09/15 03:39:58;;;;;;;4.60;3.35;;;;;;;13.16;73.36;99658.78;5023116;28;20025;-24
2022/09/15 03:42:23;;;;;;;4.10;3.42;;;;;;;13.18;73.33;99662.22;5025426;28;20032;-25
2022/09/15 03:44:50;;;;;;;4.30;3.38;;;;;;;13.16;73.40;99658.78;5018564;28;20028;-24
2022/09/15 03:47:15;;;;;;;5.03;3.50;;;;;;;13.12;73.20;99656.28;5020110;28;20038;-25
2022/09/15 03:49:41;;;;;;;4.68;3.17;;;;;;;13.10;73.22;99669.56;5009587;28;20132;-25
2022/09/15 03:52:06;;;;;;;5.03;3.65;;;;;;;13.04;73.96;99664.50;5010532;28;20025;-25
2022/09/15 03:54:31;;;;;;;3.17;2.80;;;;;;;13.03;73.83;99671.56;5031778;28;20535;-24
2022/09/15 03:56:57;;;;;;;4.82;2.92;;;;;;;13.01;73.47;99675.19;5027052;28;20470;-25
2022/09/15 03:59:27;;;;;;;3.75;3.13;;;;;;;12.96;73.60;99665.66;5022073;28;20026;-25
2022/09/15 04:01:53;;;;;;;4.03;3.60;;;;;;;12.91;73.69;99659.63;5025421;28;20076;-24
2022/09/15 04:04:18;;;;;;;3.53;2.55;;;;;;;12.89;73.76;99674.72;5020255;28;20034;-23
2022/09/15 04:06:43;;;;;;;4.10;2.90;;;;;;;12.88;73.58;99670.34;5028120;28;20105;-25
2022/09/15 04:09:09;;;;;;;2.95;2.65;;;;;;;12.87;73.56;99660.66;5012695;28;20120;-25
2022/09/15 04:11:35;;;;;;;3.33;2.25;;;;;;;12.80;73.94;99672.38;5026812;28;20462;-25
2022/09/15 04:14:00;;;;;;;7.18;3.33;;;;;;;12.79;73.88;99666.22;5028920;28;20022;-25
2022/09/15 04:16:32;;;;;;;3.90;3.13;;;;;;;12.80;73.54;99673.25;5022389;28;20026;-23
2022/09/15 04:18:58;;;;;;;5.07;3.28;;;;;;;12.78;73.62;99667.16;5017783;28;20028;-24
2022/09/15 04:21:48;;;;;;;4.80;2.70;;;;;;;12.74;73.77;99665.50;5005918;28;20029;-23
2022/09/15 04:24:17;;;;;;;2.88;2.60;;;;;;;12.72;73.75;99669.13;5008528;28;20056;-23
2022/09/15 04:26:43;;;;;;;4.18;2.95;;;;;;;12.74;73.67;99673.44;5016156;28;20429;-24
2022/09/15 04:29:13;;;;;;;3.15;2.85;;;;;;;12.66;74.21;99672.84;5034964;28;20056;-24
2022/09/15 04:31:39;;;;;;;3.80;2.75;;;;;;;12.64;74.40;99672.91;5031034;28;20029;-24
2022/09/15 04:34:04;;;;;;;3.08;2.75;;;;;;;12.67;73.96;99672.78;5021000;28;20510;-24
2022/09/15 04:36:30;;;;;;;5.95;3.15;;;;;;;12.66;73.66;99676.38;5013149;28;20470;-24
2022/09/15 04:39:05;;;;;;;4.32;2.80;;;;;;;12.66;73.56;99676.38;5023509;28;20033;-23
2022/09/15 04:41:33;;;;;;;3.55;2.83;;;;;;;12.65;73.39;99677.28;5025723;28;20024;-24
2022/09/15 04:43:59;;;;;;;4.88;3.38;;;;;;;12.64;73.75;99675.53;5034878;28;20076;-24
2022/09/15 04:46:27;;;;;;;3.90;2.90;;;;;;;12.64;73.95;99678.19;5031624;28;20421;-24
2022/09/15 04:48:53;;;;;;;5.57;3.60;;;;;;;12.67;73.84;99682.53;5029982;28;20021;-24
2022/09/15 04:51:22;;;;;;;4.05;2.88;;;;;;;12.68;73.81;99684.25;5009436;28;20021;-24
2022/09/15 04:53:48;;;;;;;5.63;3.30;;;;;;;12.69;73.38;99686.84;5022873;28;20057;-24
2022/09/15 04:56:17;;;;;;;3.50;3.05;;;;;;;12.72;73.34;99690.28;5019818;28;20021;-24
2022/09/15 04:58:44;;;;;;;5.03;3.08;;;;;;;12.67;73.71;99688.66;5009601;28;20070;-24
2022/09/15 05:01:32;;;;;;;3.97;3.50;;;;;;;12.68;73.89;99687.75;5020085;28;20104;-24
2022/09/15 05:04:00;;;;;;;4.22;3.60;;;;;;;12.65;74.16;99695.81;5005497;28;20029;-24
2022/09/15 05:06:26;;;;;;;4.03;3.67;;;;;;;12.63;74.29;99692.34;5026749;28;20131;-24
2022/09/15 05:08:54;;;;;;;4.00;3.58;;;;;;;12.64;74.02;99688.75;5017981;28;20721;-24
2022/09/15 05:11:20;;;;;;;4.88;2.90;;;;;;;12.65;73.76;99695.81;5015559;28;20022;-24
2022/09/15 05:13:48;;;;;;;3.70;3.40;;;;;;;12.67;74.22;99688.66;5012901;28;20049;-23
2022/09/15 05:16:34;;;;;;;3.95;3.50;;;;;;;12.66;74.27;99694.88;5014016;28;20538;-24
2022/09/15 05:19:00;;;;;;;6.07;4.03;;;;;;;12.65;73.91;99701.09;5031982;28;20055;-25
2022/09/15 05:21:26;;;;;;;5.03;3.83;;;;;;;12.64;74.46;99704.63;5028649;28;20038;-25
2022/09/15 05:23:51;;;;;;;4.85;4.13;;;;;;;12.62;74.20;99697.69;5008994;28;20031;-24
2022/09/15 05:26:27;;;;;;;4.53;3.63;;;;;;;12.62;74.09;99701.19;5021563;28;20075;-25
2022/09/15 05:28:52;;;;;;;5.47;3.80;;;;;;;12.60;73.97;99703.00;5008372;28;20059;-26
2022/09/15 05:31:20;;;;;;;5.75;3.75;;;;;;;12.65;74.19;99705.50;5020604;28;20061;-24
2022/09/15 05:33:46;;;;;;;6.65;4.45;;;;;;;12.61;73.84;99704.75;5009769;28;20112;-23
2022/09/15 05:36:16;;;;;;;5.63;4.45;;;;;;;12.63;74.17;99707.34;5031552;28;20033;-23
2022/09/15 05:38:42;;;;;;;9.30;4.80;;;;;;;12.61;74.36;99710.06;5030614;28;20171;-24
2022/09/15 05:41:10;;;;;;;5.57;4.43;;;;;;;12.58;74.68;99710.16;5020603;28;20431;-23
2022/09/15 05:43:36;;;;;;;5.97;4.43;;;;;;;12.64;74.34;99703.78;5018078;28;20030;-23
2022/09/15 05:46:03;;;;;;;6.28;4.97;;;;;;;12.64;74.21;99720.50;5014481;28;20044;-24
2022/09/15 05:48:28;;;;;;;5.35;4.32;;;;;;;12.62;74.28;99711.78;5010508;28;20497;-24
2022/09/15 05:50:54;;;;;;;6.28;4.53;;;;;;;12.60;74.54;99702.16;5012022;28;20040;-24
2022/09/15 05:53:20;;;;;;;6.57;4.75;;;;;;;12.59;74.67;99711.88;5011042;28;20017;-24
2022/09/15 05:55:57;;;;;;;7.05;4.60;;;;;;;12.61;74.76;99720.63;5022559;28;20053;-24
2022/09/15 05:58:23;;;;;;;5.85;4.47;;;;;;;12.62;74.10;99714.44;5022397;28;20604;-23
2022/09/15 06:00:48;;;;;;;8.60;5.15;;;;;;;12.57;75.16;99714.56;5031454;28;20032;-24
2022/09/15 06:03:14;;;;;;;6.45;4.22;;;;;;;12.61;74.59;99712.69;5024920;28;20504;-24
2022/09/15 06:05:40;;;;;;;6.03;4.90;;;;;;;12.64;73.95;99714.38;5006479;28;20017;-24
2022/09/15 06:08:05;;;;;;;5.05;4.40;;;;;;;12.62;74.52;99714.44;5025348;28;20037;-24
2022/09/15 06:10:31;;;;;;;8.10;5.47;;;;;;;12.62;74.80;99716.19;5025113;28;20435;-24
2022/09/15 06:12:57;;;;;;;7.57;4.88;;;;;;;12.60;74.90;99713.59;5021607;28;20030;-24
2022/09/15 06:15:23;;;;;;;6.95;5.32;;;;;;;12.59;74.62;99717.16;5034231;28;20044;-25
2022/09/15 06:17:49;;;;;;;6.70;4.80;;;;;;;12.62;74.89;99706.47;5036900;28;20037;-24
2022/09/15 06:20:15;;;;;;;7.53;5.05;;;;;;;12.63;75.00;99723.19;5020966;28;20025;-24
2022/09/15 06:22:40;;;;;;;7.15;5.53;;;;;;;12.66;74.65;99726.63;5017001;28;20026;-23
2022/09/15 06:25:06;;;;;;;6.65;5.18;;;;;;;12.62;74.88;99719.72;5024277;28;20029;-23
2022/09/15 06:27:32;;;;;;;5.97;4.78;;;;;;;12.64;74.90;99717.88;5032794;28;20090;-24
2022/09/15 06:29:58;;;;;;;9.23;5.25;;;;;;;12.66;74.94;99723.97;5008943;28;20021;-24
2022/09/15 06:32:24;;;;;;;6.00;5.03;;;;;;;12.67;75.13;99717.78;5033837;28;20032;-24
2022/09/15 06:34:49;;;;;;;8.43;5.43;;;;;;;12.68;75.04;99716.84;5015471;28;20111;-24
2022/09/15 06:37:15;;;;;;;7.78;5.45;;;;;;;12.70;74.84;99720.31;5032892;28;20090;-24
2022/09/15 06:39:42;;;;;;;7.95;5.60;;;;;;;12.74;74.96;99725.50;5007946;28;20033;-24
2022/09/15 06:42:07;;;;;;;6.22;5.50;;;;;;;12.75;74.98;99721.94;5031628;28;20038;-25
2022/09/15 06:44:32;;;;;;;6.90;5.40;;;;;;;12.75;75.37;99719.28;5033897;28;20021;-24
2022/09/15 06:46:58;;;;;;;6.82;4.90;;;;;;;12.78;74.98;99720.06;5014699;28;20068;-24
2022/09/15 06:49:26;;;;;;;7.55;5.28;;;;;;;12.79;75.28;99718.28;5006537;28;20029;-25
2022/09/15 06:51:55;;;;;;;7.13;5.50;;;;;;;12.81;75.35;99716.47;5021891;28;20037;-24
2022/09/15 06:54:20;;;;;;;8.68;5.97;;;;;;;12.83;75.31;99725.19;5015805;28;20025;-24
2022/09/15 06:56:46;;;;;;;7.35;5.00;;;;;;;12.86;75.19;99730.38;5033320;28;20036;-24
2022/09/15 06:59:11;;;;;;;7.10;4.68;;;;;;;12.90;75.03;99725.88;5024265;28;20041;-24
2022/09/15 07:01:40;;;;;;;6.68;5.18;;;;;;;12.92;74.92;99731.97;5033662;28;20029;-24
2022/09/15 07:04:08;;;;;;;6.68;4.75;;;;;;;12.95;75.31;99740.66;5015410;28;20087;-24
2022/09/15 07:06:46;;;;;;;5.88;4.63;;;;;;;13.01;74.99;99731.63;5033468;28;20029;-24
2022/09/15 07:09:12;;;;;;;7.03;4.85;;;;;;;13.05;75.37;99729.75;5012244;28;20131;-24
2022/09/15 07:11:40;;;;;;;7.85;5.25;;;;;;;13.11;75.31;99726.03;5013764;28;20446;-25
2022/09/15 07:14:05;;;;;;;6.25;5.22;;;;;;;13.15;75.64;99725.88;5016835;28;20017;-25
2022/09/15 07:16:31;;;;;;;8.57;6.13;;;;;;;13.21;76.09;99714.22;5033179;28;20033;-25
2022/09/15 07:19:02;;;;;;;9.35;4.93;;;;;;;13.27;75.83;99734.31;4994063;28;20056;-25
2022/09/15 07:21:27;;;;;;;5.88;5.13;;;;;;;13.33;75.93;99731.44;5011526;28;20022;-25
2022/09/15 07:23:55;;;;;;;7.65;5.40;;;;;;;13.39;76.25;99728.56;5014053;28;20368;-25
2022/09/15 07:26:23;;;;;;;7.72;5.38;;;;;;;13.46;75.94;99726.56;5007674;28;20036;-25
2022/09/15 07:28:53;;;;;;;9.60;5.30;;;;;;;13.51;76.19;99724.66;5024150;28;20502;-25
2022/09/15 07:31:20;;;;;;;7.18;5.82;;;;;;;13.58;75.58;99728.78;5029643;28;20026;-25
2022/09/15 07:33:45;;;;;;;6.82;5.47;;;;;;;13.64;75.49;99735.63;5032659;28;20425;-25
2022/09/15 07:36:14;;;;;;;9.20;5.50;;;;;;;13.70;75.54;99729.25;5015533;28;20033;-25
2022/09/15 07:38:45;;;;;;;7.65;6.22;;;;;;;13.78;76.09;99729.84;5033438;28;20029;-25
2022/09/15 07:41:13;;;;;;;8.15;4.72;;;;;;;13.88;76.25;99734.78;5007293;28;20028;-25
2022/09/15 07:43:39;;;;;;;9.80;7.18;;;;;;;13.99;77.75;99737.91;4999742;28;20120;-25
2022/09/15 07:46:05;;;;;;;6.63;5.85;;;;;;;14.11;80.33;99739.22;5033684;28;20424;-25
2022/09/15 07:48:30;;;;;;;10.15;7.05;;;;;;;14.19;80.44;99739.78;5011760;28;20394;-25
2022/09/15 07:50:56;;;;;;;13.35;7.25;;;;;;;14.29;81.32;99744.72;5021944;28;20014;-25
2022/09/15 07:53:29;;;;;;;11.35;8.40;;;;;;;14.38;81.83;99741.72;5026620;28;20029;-24
2022/09/15 07:55:55;;;;;;;9.68;8.13;;;;;;;14.42;81.38;99747.75;5028045;28;20025;-23
2022/09/15 07:58:21;;;;;;;13.07;9.55;;;;;;;14.50;82.08;99749.16;5028607;28;20463;-24
2022/09/15 08:00:46;;;;;;;12.63;8.63;;;;;;;14.58;81.55;99755.94;5023912;28;20017;-24
2022/09/15 08:03:12;;;;;;;10.57;8.15;;;;;;;14.64;82.26;99747.72;5034560;28;20045;-24
2022/09/15 08:05:40;;;;;;;12.40;8.15;;;;;;;14.70;82.46;99758.09;5033536;28;20040;-24
2022/09/15 08:08:06;;;;;;;13.10;8.73;;;;;;;14.73;82.08;99760.63;5033065;28;20035;-24
2022/09/15 08:10:41;;;;;;;12.35;8.60;;;;;;;14.82;82.39;99763.84;5015060;28;20029;-23
2022/09/15 08:13:07;;;;;;;14.57;9.73;;;;;;;14.88;82.81;99753.84;5007104;28;20087;-23
2022/09/15 08:15:37;;;;;;;15.13;8.90;;;;;;;14.93;82.03;99758.97;5016373;28;20487;-23
2022/09/15 08:18:04;;;;;;;11.52;8.63;;;;;;;15.00;81.90;99749.81;5019433;28;20079;-23
2022/09/15 08:20:39;;;;;;;12.18;8.30;;;;;;;15.09;82.29;99751.22;4994402;28;20029;-23
2022/09/15 08:23:10;;;;;;;12.93;8.57;;;;;;;15.18;81.99;99752.63;4981306;28;20049;-24
2022/09/15 08:25:37;;;;;;;11.32;8.55;;;;;;;15.27;82.28;99749.56;5014094;28;20462;-24
2022/09/15 08:28:03;;;;;;;12.60;10.02;;;;;;;15.36;82.67;99753.59;5013615;28;20095;-24
2022/09/15 08:30:28;;;;;;;13.10;9.93;;;;;;;15.47;82.99;99750.47;5005620;28;20022;-24
2022/09/15 08:32:53;;;;;;;13.73;9.38;;;;;;;15.52;82.33;99759.13;5030621;28;20029;-24
2022/09/15 08:35:22;;;;;;;14.77;9.63;;;;;;;15.59;81.35;99757.03;5031361;28;20496;-24
2022/09/15 08:37:47;;;;;;;11.30;8.65;;;;;;;15.62;80.67;99759.56;5030863;28;20027;-24
2022/09/15 08:40:20;;;;;;;12.52;9.20;;;;;;;15.70;79.87;99753.88;5022461;28;20025;-24
2022/09/15 08:42:47;;;;;;;11.52;8.95;;;;;;;15.82;80.52;99767.56;4994809;28;20501;-24
2022/09/15 08:45:40;;;;;;;9.52;7.78;;;;;;;15.96;79.82;99765.16;5017716;28;20132;-24
2022/09/15 08:48:07;;;;;;;8.93;7.35;;;;;;;16.05;79.58;99761.22;5029955;28;20504;-24
2022/09/15 08:50:47;;;;;;;9.73;6.95;;;;;;;16.18;79.36;99766.84;5029042;28;20029;-23
2022/09/15 08:53:17;;;;;;;7.45;6.57;;;;;;;16.27;79.16;99763.72;5029018;28;20037;-23
2022/09/15 08:55:52;;;;;;;6.85;6.15;;;;;;;16.34;78.29;99774.09;5025475;28;20029;-23
2022/09/15 08:58:36;;;;;;;9.52;6.45;;;;;;;16.41;77.42;99764.88;5021842;28;20067;-23
2022/09/15 09:01:16;;;;;;;6.03;5.38;;;;;;;16.49;77.16;99761.81;5023630;28;20079;-23
2022/09/15 09:03:57;;;;;;;6.22;5.63;;;;;;;16.60;77.27;99754.19;5013108;28;20030;-23
2022/09/15 09:06:38;;;;;;;;;;;;;;;16.70;77.24;99759.91;5019428;28;20381;-23
2022/09/15 09:09:40;;;;;;;7.25;5.20;;;;;;;16.75;76.43;99763.22;5035698;28;19913;-23
2022/09/15 09:12:24;;;;;;;7.28;5.47;;;;;;;16.78;76.22;99760.38;5015555;28;20470;-23
2022/09/15 09:15:01;;;;;;;6.10;4.30;;;;;;;16.88;76.13;99768.78;5026258;28;20073;-24
2022/09/15 09:17:42;;;;;;;5.90;4.13;;;;;;;16.91;75.32;99765.97;5006174;28;20175;-24
2022/09/15 09:20:26;;;;;;;4.57;4.05;;;;;;;16.96;75.49;99772.84;5026128;28;20034;-24
2022/09/15 09:22:52;;;;;;;5.35;4.07;;;;;;;17.05;75.58;99756.44;5017492;28;20029;-24
2022/09/15 09:25:20;;;;;;;5.95;4.50;;;;;;;17.13;74.95;99772.91;4999557;28;20022;-24
2022/09/15 09:27:46;;;;;;;6.22;4.18;;;;;;;17.20;74.77;99770.78;5017131;28;20018;-24
2022/09/15 09:30:17;;;;;;;5.47;4.25;;;;;;;17.25;74.58;99768.75;4992939;28;20026;-24
2022/09/15 09:32:44;;;;;;;6.68;4.43;;;;;;;17.31;74.66;99763.09;5019390;28;20021;-24
2022/09/15 09:35:15;;;;;;;4.90;3.63;;;;;;;17.31;74.29;99763.09;5037928;28;20033;-24
2022/09/15 09:37:40;;;;;;;;;;;;;;;17.34;74.53;99758.56;5038811;28;20036;-24
2022/09/15 09:40:06;;;;;;;5.33;4.03;;;;;;;17.35;73.93;99769.16;5011627;28;19917;-24
2022/09/15 09:42:35;;;;;;;6.15;4.57;;;;;;;17.35;73.74;99770.94;5037975;28;20473;-24
2022/09/15 09:45:02;;;;;;;5.75;4.35;;;;;;;17.34;74.04;99778.06;5036875;28;20033;-24
2022/09/15 09:47:28;;;;;;;4.20;3.60;;;;;;;17.34;74.40;99775.41;5016939;28;20045;-24
2022/09/15 09:49:54;;;;;;;4.88;3.60;;;;;;;17.34;73.94;99771.88;5009604;28;20049;-24
2022/09/15 09:52:36;;;;;;;3.50;3.13;;;;;;;17.32;73.40;99766.63;5023187;28;20105;-24
2022/09/15 09:55:22;;;;;;;5.22;3.03;;;;;;;17.33;71.96;99771.00;5014442;28;20033;-24
2022/09/15 09:57:47;;;;;;;5.25;2.60;;;;;;;17.34;72.06;99771.88;5015831;28;20021;-24
2022/09/15 10:00:33;;;;;;;2.58;2.30;;;;;;;17.34;72.02;99771.88;5028764;28;20489;-24
2022/09/15 10:03:13;;;;;;;2.53;2.10;;;;;;;17.33;72.54;99781.69;5012506;28;20033;-24
2022/09/15 10:05:40;;;;;;;3.35;2.15;;;;;;;17.33;73.04;99776.34;5016088;28;20140;-24
2022/09/15 10:08:05;;;;;;;2.50;2.30;;;;;;;17.31;71.94;99776.41;5015798;28;20029;-25
2022/09/15 10:10:34;;;;;;;3.28;2.05;;;;;;;17.31;71.99;99787.09;5008150;28;20033;-24
2022/09/15 10:13:02;;;;;;;2.35;2.00;;;;;;;17.30;72.58;99779.16;5015875;28;20080;-24
2022/09/15 10:15:31;;;;;;;4.60;2.38;;;;;;;17.29;72.19;99785.44;5015404;28;20032;-23
2022/09/15 10:17:56;;;;;;;3.47;1.92;;;;;;;17.28;71.61;99787.22;4999428;28;20450;-23
2022/09/15 10:20:45;;;;;;;2.03;1.83;;;;;;;17.30;71.19;99790.69;5008551;28;20053;-23
2022/09/15 10:23:20;;;;;;;3.03;1.80;;;;;;;17.30;72.04;99784.50;4979301;28;20490;-24
2022/09/15 10:25:49;;;;;;;2.38;1.70;;;;;;;17.30;71.83;99788.03;5026033;28;20052;-24
2022/09/15 10:28:17;;;;;;;2.38;1.90;;;;;;;17.29;71.75;99791.66;4999905;28;20083;-24
2022/09/15 10:31:07;;;;;;;4.00;1.42;;;;;;;17.31;71.34;99789.75;5016604;28;20026;-24
2022/09/15 10:33:41;;;;;;;4.43;2.42;;;;;;;17.34;71.67;99782.56;4999524;28;20092;-24
2022/09/15 10:36:12;;;;;;;3.10;1.55;;;;;;;17.35;71.79;99790.47;5008991;28;20421;-23
2022/09/15 10:38:53;;;;;;;1.67;1.50;;;;;;;17.37;71.76;99793.06;5034566;28;20029;-23
2022/09/15 10:41:29;;;;;;;4.00;1.77;;;;;;;17.36;71.37;99786.84;5034146;28;20091;-22
2022/09/15 10:44:45;;;;;;;2.47;1.80;;;;;;;17.37;71.41;99782.41;5033896;28;20025;-24
2022/09/15 10:47:29;;;;;;;2.75;1.42;;;;;;;17.38;71.50;99781.44;4989871;28;20066;-23
2022/09/15 10:50:30;;;;;;;2.42;1.70;;;;;;;17.38;71.52;99789.44;5000721;28;20128;-22
2022/09/15 10:53:24;;;;;;;2.13;1.45;;;;;;;17.36;71.32;99785.97;5012276;28;20028;-23
2022/09/15 10:56:17;;;;;;;2.47;1.77;;;;;;;17.35;70.79;99784.25;5036056;28;20083;-23
2022/09/15 10:58:47;;;;;;;4.15;2.10;;;;;;;17.33;70.93;99791.50;5034390;28;20532;-23
2022/09/15 11:01:22;;;;;;;1.63;1.53;;;;;;;17.31;71.21;99784.41;5005193;28;20026;-23
2022/09/15 11:04:05;;;;;;;1.92;1.20;;;;;;;17.30;70.79;99784.50;5021366;28;20026;-23
2022/09/15 11:06:40;;;;;;;3.67;1.60;;;;;;;17.29;70.90;99794.31;5018581;28;20079;-23
2022/09/15 11:09:12;;;;;;;1.55;1.45;;;;;;;17.28;70.75;99787.22;5017035;28;20028;-22
2022/09/15 11:11:59;;;;;;;1.75;1.40;;;;;;;17.28;70.79;99778.41;5005933;28;20025;-24
2022/09/15 11:14:47;;;;;;;2.00;1.20;;;;;;;17.28;70.72;99779.25;5021325;28;20068;-22
2022/09/15 11:17:30;;;;;;;3.03;1.15;;;;;;;17.30;69.82;99780.03;5036374;28;20052;-24
2022/09/15 11:20:13;;;;;;;1.80;1.10;;;;;;;17.31;69.69;99781.75;5010679;28;20022;-23
2022/09/15 11:22:45;;;;;;;1.60;1.08;;;;;;;17.32;69.81;99774.63;5016280;28;20064;-23
2022/09/15 11:25:19;;;;;;;1.20;1.10;;;;;;;17.34;70.20;99761.22;4982074;28;20033;-23
2022/09/15 11:28:10;;;;;;;1.30;0.88;;;;;;;17.37;69.98;99771.75;5025010;28;20099;-23
2022/09/15 11:30:40;;;;;;;1.20;0.90;;;;;;;17.38;69.86;99776.13;5024769;28;20446;-23
2022/09/15 11:33:36;;;;;;;3.13;1.27;;;;;;;17.42;69.77;99769.69;5007001;28;20048;-24
2022/09/15 11:36:18;;;;;;;0.80;0.80;;;;;;;17.46;69.84;99771.25;5015326;28;20030;-24
2022/09/15 11:39:08;;;;;;;1.58;1.48;;;;;;;17.52;69.98;99775.38;5026328;28;20021;-24
2022/09/15 11:41:39;;;;;;;1.35;1.00;;;;;;;17.59;69.78;99773.25;5025796;28;20022;-24
2022/09/15 11:44:21;;;;;;;2.83;1.05;;;;;;;17.64;69.75;99763.22;5014588;28;20036;-24
2022/09/15 11:47:17;;;;;;;2.08;1.15;;;;;;;17.72;69.85;99762.78;5013908;28;20556;-24
2022/09/15 11:49:51;;;;;;;2.22;1.30;;;;;;;17.80;69.92;99760.56;5026279;28;20088;-24
2022/09/15 11:52:41;;;;;;;1.90;1.30;;;;;;;17.88;69.67;99765.50;5012951;28;20025;-24
2022/09/15 11:55:37;;;;;;;2.33;1.15;;;;;;;17.95;69.79;99758.91;5014854;28;20049;-24
2022/09/15 11:58:21;;;;;;;1.40;1.30;;;;;;;18.01;69.69;99766.53;5013475;28;20454;-24